Terminal Aerodrome Forecast
Issued by NWS Jackson, KY

Home | Current Version | Previous Version | Text Only | Print | Product List | Glossary On
Versions: 1 2 3 4 5 6 7 8 9 10 11 12 13 14 15 16 17 18 19 20 21 22 23 24 25
000
FTUS43 KJKL 021724
TAFLOZ
TAF
KLOZ 021724Z 0218/0318 VRB03KT P6SM FEW020
     FM030600 VRB03KT P6SM OVC100
     FM031000 VRB03KT 4SM -FZRA OVC020
     FM031300 VRB03KT 3SM -RA OVC005=

USA.gov is the U.S. government's official web portal to all federal, state and local government web resources and services.